createdAt,value
2023-04-22T00:01:02.779Z,7.43
2023-04-22T00:03:45.054Z,6.97
2023-04-22T00:06:19.120Z,6.82
2023-04-22T00:08:56.169Z,8.33
2023-04-22T00:11:31.750Z,6.20
2023-04-22T00:14:08.606Z,6.60
2023-04-22T00:16:51.608Z,7.00
2023-04-22T00:19:28.547Z,7.10
2023-04-22T00:22:04.064Z,7.65
2023-04-22T00:24:40.403Z,7.83
2023-04-22T00:27:17.129Z,6.80
2023-04-22T00:29:52.856Z,7.40
2023-04-22T00:32:39.562Z,8.45
2023-04-22T00:37:55.531Z,6.75
2023-04-22T00:40:32.896Z,8.23
2023-04-22T00:43:10.158Z,9.25
2023-04-22T00:45:45.148Z,9.07
2023-04-22T00:48:23.488Z,8.80
2023-04-22T00:51:01.516Z,8.38
2023-04-22T00:53:36.047Z,8.63
2023-04-22T00:56:13.237Z,5.95
2023-04-22T00:59:01.138Z,8.57
2023-04-22T01:01:37.100Z,7.50
2023-04-22T01:04:16.582Z,8.40
2023-04-22T01:06:56.743Z,8.40
2023-04-22T01:09:31.515Z,7.57
2023-04-22T01:12:07.867Z,9.55
2023-04-22T01:14:43.490Z,8.20
2023-04-22T01:17:19.704Z,8.13
2023-04-22T01:19:58.580Z,8.30
2023-04-22T01:22:33.891Z,9.37
2023-04-22T01:25:13.262Z,9.40
2023-04-22T01:27:57.106Z,10.77
2023-04-22T01:30:33.901Z,11.30
2023-04-22T01:33:12.873Z,10.55
2023-04-22T01:35:49.805Z,10.95
2023-04-22T01:38:27.381Z,10.40
2023-04-22T01:41:08.184Z,11.95
2023-04-22T01:43:41.943Z,9.70
2023-04-22T01:46:20.141Z,9.25
2023-04-22T01:48:58.181Z,9.80
2023-04-22T01:51:34.259Z,9.60
2023-04-22T01:56:52.730Z,11.75
2023-04-22T01:59:28.828Z,12.98
2023-04-22T02:02:09.561Z,13.15
2023-04-22T02:04:46.384Z,13.30
2023-04-22T02:07:24.693Z,11.80
2023-04-22T02:10:00.409Z,10.15
2023-04-22T02:12:38.991Z,10.40
2023-04-22T02:15:15.266Z,12.40
2023-04-22T02:17:53.427Z,13.07
2023-04-22T02:20:29.907Z,13.40
2023-04-22T02:23:05.745Z,12.90
2023-04-22T02:25:42.025Z,10.90
2023-04-22T02:28:21.513Z,12.55
2023-04-22T02:31:00.440Z,13.52
2023-04-22T02:33:35.117Z,15.80
2023-04-22T02:36:11.749Z,14.38
2023-04-22T02:38:52.454Z,15.15
2023-04-22T02:41:33.374Z,16.25
2023-04-22T02:44:19.127Z,11.93
2023-04-22T02:46:58.314Z,14.40
2023-04-22T02:49:40.050Z,14.40
2023-04-22T02:52:17.902Z,12.27
2023-04-22T02:54:53.667Z,12.93
2023-04-22T02:57:29.136Z,12.35
2023-04-22T03:00:10.353Z,13.00
2023-04-22T03:02:46.421Z,14.40
2023-04-22T03:05:24.352Z,13.80
2023-04-22T03:08:00.025Z,14.77
2023-04-22T03:10:36.178Z,16.35
2023-04-22T03:13:11.901Z,13.90
2023-04-22T03:15:52.841Z,14.45
2023-04-22T03:18:34.013Z,18.50
2023-04-22T03:21:09.735Z,14.57
2023-04-22T03:23:48.091Z,13.45
2023-04-22T03:26:26.444Z,12.98
2023-04-22T03:29:03.725Z,14.60
2023-04-22T03:31:43.292Z,14.02
2023-04-22T03:34:19.219Z,15.90
2023-04-22T03:36:57.139Z,16.03
2023-04-22T03:39:33.244Z,18.45
2023-04-22T03:42:08.751Z,16.80
2023-04-22T03:44:51.792Z,14.45
2023-04-22T03:47:32.234Z,14.85
2023-04-22T03:50:18.975Z,13.70
2023-04-22T03:52:56.401Z,12.35
2023-04-22T03:55:36.256Z,14.30
2023-04-22T03:58:11.868Z,13.70
2023-04-22T04:00:47.397Z,12.93
2023-04-22T04:03:30.168Z,12.20
2023-04-22T04:06:11.909Z,12.45
2023-04-22T04:08:48.821Z,12.88
2023-04-22T04:11:26.169Z,12.00
2023-04-22T04:14:03.780Z,12.02
2023-04-22T04:16:55.155Z,11.80
2023-04-22T04:19:36.924Z,10.70
2023-04-22T04:25:03.026Z,11.10
2023-04-22T04:27:46.719Z,10.13
2023-04-22T04:30:31.054Z,9.73
2023-04-22T04:33:13.990Z,10.20
2023-04-22T04:35:56.276Z,9.82
2023-04-22T04:38:41.784Z,9.52
2023-04-22T04:41:21.745Z,9.10
2023-04-22T04:44:00.968Z,10.40
2023-04-22T04:46:43.684Z,11.10
2023-04-22T04:49:21.142Z,12.25
2023-04-22T04:52:03.922Z,10.52
2023-04-22T04:57:19.285Z,10.30
2023-04-22T05:00:00.161Z,10.38
2023-04-22T05:02:39.334Z,10.90
2023-04-22T05:05:18.261Z,10.40
2023-04-22T05:07:54.423Z,8.80
2023-04-22T05:10:36.068Z,9.93
2023-04-22T05:13:13.348Z,9.15
2023-04-22T05:15:55.544Z,9.82
2023-04-22T05:18:34.675Z,9.25
2023-04-22T05:21:13.174Z,9.75
2023-04-22T05:23:51.094Z,10.15
2023-04-22T05:26:33.812Z,11.55
2023-04-22T05:29:15.141Z,10.85
2023-04-22T05:31:56.555Z,10.53
2023-04-22T05:34:34.704Z,9.23
2023-04-22T05:37:12.541Z,8.90
2023-04-22T05:40:14.020Z,9.32
2023-04-22T05:42:59.281Z,8.80
2023-04-22T05:45:39.842Z,8.97
2023-04-22T05:48:19.311Z,9.85
2023-04-22T05:51:10.397Z,8.57
2023-04-22T05:53:50.402Z,8.38
2023-04-22T05:56:28.904Z,9.50
2023-04-22T05:59:05.632Z,8.93
2023-04-22T06:01:47.407Z,9.48
2023-04-22T06:04:35.546Z,10.25
2023-04-22T06:07:16.506Z,10.07
2023-04-22T06:09:59.428Z,9.20
2023-04-22T06:12:47.059Z,10.10
2023-04-22T06:15:26.871Z,9.90
2023-04-22T06:18:07.212Z,10.07
2023-04-22T06:20:43.248Z,10.45
2023-04-22T06:23:24.243Z,10.05
2023-04-22T06:26:01.826Z,10.77
2023-04-22T06:28:44.258Z,9.57
2023-04-22T06:31:25.376Z,9.32
2023-04-22T06:34:07.677Z,9.68
2023-04-22T06:39:42.224Z,10.90
2023-04-22T06:42:40.557Z,10.55
2023-04-22T06:45:33.496Z,9.80
2023-04-22T06:48:38.031Z,10.05
2023-04-22T06:51:49.640Z,10.57
2023-04-22T06:54:39.327Z,10.50
2023-04-22T06:57:15.089Z,10.70
2023-04-22T06:59:57.362Z,10.05
2023-04-22T07:02:37.995Z,10.50
2023-04-22T07:05:26.264Z,9.23
2023-04-22T07:08:10.708Z,9.23
2023-04-22T07:10:52.476Z,10.17
2023-04-22T07:13:46.692Z,9.88
2023-04-22T07:19:28.235Z,11.25
2023-04-22T07:22:07.301Z,9.57
2023-04-22T07:24:48.958Z,9.90
2023-04-22T07:30:41.166Z,9.85
2023-04-22T07:33:27.821Z,10.75
2023-04-22T07:36:06.265Z,10.63
2023-04-22T07:38:50.614Z,9.98
2023-04-22T07:42:10.947Z,10.18
2023-04-22T07:45:34.324Z,10.18
2023-04-22T07:51:28.191Z,10.18
2023-04-22T07:54:40.642Z,9.65
2023-04-22T07:57:41.344Z,9.45
2023-04-22T08:03:34.223Z,9.20
2023-04-22T08:12:20.560Z,8.10
2023-04-22T08:15:04.276Z,8.25
2023-04-22T08:17:52.478Z,9.07
2023-04-22T08:20:46.703Z,7.30
2023-04-22T08:38:08.796Z,7.03
2023-04-22T08:41:04.180Z,6.68
2023-04-22T08:43:52.183Z,5.75
2023-04-22T08:46:42.594Z,7.20
2023-04-22T08:52:15.968Z,5.75
2023-04-22T08:55:06.948Z,5.65
2023-04-22T09:00:39.920Z,6.45
2023-04-22T09:03:31.465Z,7.05
2023-04-22T09:06:16.528Z,6.28
2023-04-22T09:08:57.494Z,6.13
2023-04-22T09:11:36.768Z,5.60
2023-04-22T09:17:11.107Z,4.20
2023-04-22T09:19:45.278Z,4.78
2023-04-22T09:22:23.206Z,5.03
2023-04-22T09:25:02.830Z,5.05
2023-04-22T09:27:52.172Z,4.85
2023-04-22T09:33:27.475Z,4.35
2023-04-22T09:36:20.870Z,4.67
2023-04-22T09:39:11.560Z,4.32
2023-04-22T09:42:14.252Z,3.22
2023-04-22T09:44:58.991Z,4.40
2023-04-22T09:47:45.699Z,5.05
2023-04-22T09:50:24.937Z,3.90
2023-04-22T09:53:05.557Z,4.10
2023-04-22T09:55:45.358Z,3.10
2023-04-22T09:58:32.339Z,3.40
2023-04-22T10:01:09.880Z,4.00
2023-04-22T10:03:57.059Z,4.17
2023-04-22T10:06:41.849Z,4.05
2023-04-22T10:09:18.738Z,3.25
2023-04-22T10:11:59.774Z,4.03
2023-04-22T10:14:39.995Z,3.60
2023-04-22T10:17:22.322Z,4.00
2023-04-22T10:22:51.390Z,4.95
2023-04-22T10:25:26.365Z,5.00
2023-04-22T10:28:05.562Z,4.78
2023-04-22T10:30:45.306Z,4.30
2023-04-22T10:33:40.745Z,4.57
2023-04-22T10:36:16.131Z,5.10
2023-04-22T10:39:19.878Z,4.47
2023-04-22T10:42:01.081Z,4.00
2023-04-22T10:44:52.600Z,3.45
2023-04-22T10:47:26.770Z,3.60
2023-04-22T10:50:25.487Z,4.07
2023-04-22T10:53:05.485Z,3.70
2023-04-22T10:56:05.376Z,3.97
2023-04-22T10:58:53.210Z,3.50
2023-04-22T11:01:35.177Z,3.83
2023-04-22T11:04:26.893Z,4.03
2023-04-22T11:07:27.249Z,4.05
2023-04-22T11:10:20.077Z,4.13
2023-04-22T11:12:55.846Z,3.65
2023-04-22T11:15:35.107Z,4.00
2023-04-22T11:18:29.694Z,5.03
2023-04-22T11:21:08.400Z,3.80
2023-04-22T11:23:42.400Z,3.60
2023-04-22T11:26:30.988Z,3.55
2023-04-22T11:29:11.210Z,3.42
2023-04-22T11:31:52.452Z,3.75
2023-04-22T11:34:40.224Z,4.85
2023-04-22T11:37:18.870Z,3.22
2023-04-22T11:40:13.830Z,3.03
2023-04-22T11:42:54.610Z,2.90
2023-04-22T11:45:36.959Z,3.87
2023-04-22T11:48:12.235Z,3.03
2023-04-22T11:50:51.591Z,3.40
2023-04-22T11:53:44.967Z,3.95
2023-04-22T11:56:19.651Z,3.10
2023-04-22T11:59:06.213Z,2.90
2023-04-22T12:01:43.026Z,3.28
2023-04-22T12:04:21.394Z,2.85
2023-04-22T12:06:59.299Z,3.30
2023-04-22T12:09:38.133Z,3.63
2023-04-22T12:12:16.466Z,3.53
2023-04-22T12:15:03.014Z,3.38
2023-04-22T12:17:44.002Z,3.40
2023-04-22T12:20:25.073Z,3.70
2023-04-22T12:23:04.472Z,3.30
2023-04-22T12:25:40.753Z,3.58
2023-04-22T12:28:16.969Z,4.30
2023-04-22T12:30:59.705Z,4.30
2023-04-22T12:33:35.143Z,5.78
2023-04-22T12:36:15.831Z,5.28
2023-04-22T12:38:54.397Z,3.83
2023-04-22T12:41:36.394Z,4.15
2023-04-22T12:44:15.542Z,3.70
2023-04-22T12:47:04.326Z,4.55
2023-04-22T12:49:47.082Z,3.85
2023-04-22T12:52:26.192Z,3.45
2023-04-22T12:55:05.346Z,3.50
2023-04-22T12:57:43.113Z,3.85
2023-04-22T13:00:22.197Z,4.63
2023-04-22T13:03:08.043Z,2.90
2023-04-22T13:05:45.158Z,3.63
2023-04-22T13:08:29.190Z,3.03
2023-04-22T13:11:09.483Z,3.08
2023-04-22T13:13:58.350Z,3.50
2023-04-22T13:16:37.103Z,3.63
2023-04-22T13:19:17.580Z,3.08
2023-04-22T13:21:58.837Z,2.80
2023-04-22T13:24:36.855Z,3.00
2023-04-22T13:27:14.123Z,3.25
2023-04-22T13:29:50.006Z,2.95
2023-04-22T13:32:26.678Z,3.47
2023-04-22T13:35:09.008Z,3.13
2023-04-22T13:37:47.564Z,3.30
2023-04-22T13:40:27.320Z,2.95
2023-04-22T13:43:02.054Z,9.25
2023-04-22T13:45:45.182Z,8.45
2023-04-22T13:48:20.736Z,3.85
2023-04-22T13:53:41.740Z,3.00
2023-04-22T13:56:20.642Z,2.40
2023-04-22T13:58:58.146Z,2.60
2023-04-22T14:01:39.905Z,2.23
2023-04-22T14:04:17.683Z,3.67
2023-04-22T14:07:01.487Z,2.85
2023-04-22T14:09:41.135Z,18.80
2023-04-22T14:12:19.361Z,6.20
2023-04-22T14:14:58.144Z,8.10
2023-04-22T14:17:36.503Z,2.80
2023-04-22T14:20:22.736Z,3.10
2023-04-22T14:23:07.643Z,3.28
2023-04-22T14:25:44.211Z,3.00
2023-04-22T14:28:21.598Z,3.63
2023-04-22T14:31:02.245Z,2.63
2023-04-22T14:33:36.422Z,3.08
2023-04-22T14:36:18.934Z,2.80
2023-04-22T14:39:00.642Z,2.28
2023-04-22T14:41:37.982Z,2.85
2023-04-22T14:44:16.906Z,3.90
2023-04-22T14:46:55.586Z,2.38
2023-04-22T14:49:38.201Z,2.60
2023-04-22T14:52:20.987Z,4.45
2023-04-22T14:55:15.558Z,3.75
2023-04-22T14:58:00.667Z,2.85
2023-04-22T15:00:37.341Z,2.88
2023-04-22T15:03:16.045Z,2.67
2023-04-22T15:05:56.778Z,2.35
2023-04-22T15:08:37.373Z,2.70
2023-04-22T15:11:16.644Z,2.72
2023-04-22T15:13:57.312Z,2.33
2023-04-22T15:16:34.174Z,2.30
2023-04-22T15:19:12.771Z,2.07
2023-04-22T15:21:49.680Z,2.33
2023-04-22T15:24:27.328Z,2.55
2023-04-22T15:27:09.181Z,2.00
2023-04-22T15:29:48.116Z,3.00
2023-04-22T15:32:25.128Z,2.95
2023-04-22T15:35:13.863Z,2.83
2023-04-22T15:37:48.403Z,2.67
2023-04-22T15:40:29.459Z,2.42
2023-04-22T15:43:13.701Z,2.45
2023-04-22T15:45:52.338Z,2.70
2023-04-22T15:48:29.159Z,3.13
2023-04-22T15:51:12.185Z,3.00
2023-04-22T15:53:48.240Z,3.15
2023-04-22T15:56:25.245Z,2.80
2023-04-22T15:59:06.446Z,2.85
2023-04-22T16:01:41.355Z,2.50
2023-04-22T16:04:24.979Z,2.65
2023-04-22T16:07:01.499Z,2.72
2023-04-22T16:09:37.846Z,2.80
2023-04-22T16:12:20.895Z,2.88
2023-04-22T16:14:56.821Z,3.17
2023-04-22T16:17:38.058Z,2.65
2023-04-22T16:20:19.218Z,3.15
2023-04-22T16:22:57.429Z,2.88
2023-04-22T16:25:33.987Z,2.63
2023-04-22T16:28:12.625Z,3.13
2023-04-22T16:30:49.534Z,2.65
2023-04-22T16:33:34.333Z,3.23
2023-04-22T16:36:10.700Z,3.33
2023-04-22T16:38:48.269Z,3.17
2023-04-22T16:41:26.713Z,3.38
2023-04-22T16:44:02.322Z,3.72
2023-04-22T16:49:18.422Z,3.23
2023-04-22T16:51:54.768Z,3.40
2023-04-22T16:54:34.332Z,3.50
2023-04-22T16:57:17.717Z,3.60
2023-04-22T17:00:00.268Z,3.55
2023-04-22T17:02:36.514Z,3.30
2023-04-22T17:05:22.961Z,3.80
2023-04-22T17:08:03.648Z,4.20
2023-04-22T17:10:45.565Z,3.77
2023-04-22T17:13:25.884Z,4.18
2023-04-22T17:16:17.308Z,4.05
2023-04-22T17:18:54.562Z,4.00
2023-04-22T17:21:34.886Z,3.90
2023-04-22T17:24:16.656Z,3.97
2023-04-22T17:26:57.907Z,4.25
2023-04-22T17:29:36.522Z,3.90
2023-04-22T17:32:11.353Z,4.10
2023-04-22T17:34:50.660Z,3.80
2023-04-22T17:37:30.948Z,4.30
2023-04-22T17:40:08.997Z,5.30
2023-04-22T17:42:46.490Z,5.97
2023-04-22T17:45:24.943Z,5.55
2023-04-22T17:48:00.363Z,5.65
2023-04-22T17:50:35.956Z,5.68
2023-04-22T17:53:19.329Z,5.38
2023-04-22T17:55:54.250Z,5.22
2023-04-22T17:58:33.900Z,5.67
2023-04-22T18:01:10.270Z,5.20
2023-04-22T18:03:51.699Z,22.75
2023-04-22T18:06:29.630Z,25.05
2023-04-22T18:09:09.299Z,12.90
2023-04-22T18:11:46.836Z,7.82
2023-04-22T18:14:26.920Z,5.88
2023-04-22T18:17:04.590Z,6.38
2023-04-22T18:19:42.930Z,7.18
2023-04-22T18:22:17.715Z,9.27
2023-04-22T18:24:56.915Z,11.43
2023-04-22T18:27:32.420Z,8.32
2023-04-22T18:30:10.812Z,5.88
2023-04-22T18:32:46.248Z,6.30
2023-04-22T18:35:24.152Z,5.57
2023-04-22T18:38:02.458Z,5.90
2023-04-22T18:40:44.575Z,5.75
2023-04-22T18:43:20.621Z,5.70
2023-04-22T18:45:58.243Z,6.53
2023-04-22T18:48:35.843Z,6.47
2023-04-22T18:51:14.768Z,8.60
2023-04-22T18:53:57.179Z,11.90
2023-04-22T18:56:37.626Z,11.98
2023-04-22T18:59:14.586Z,7.50
2023-04-22T19:01:54.435Z,7.50
2023-04-22T19:04:31.671Z,6.57
2023-04-22T19:07:09.632Z,8.40
2023-04-22T19:09:48.274Z,6.50
2023-04-22T19:12:29.785Z,9.25
2023-04-22T19:15:09.166Z,10.50
2023-04-22T19:17:43.306Z,9.45
2023-04-22T19:20:19.114Z,10.73
2023-04-22T19:22:54.426Z,16.48
2023-04-22T19:25:30.763Z,15.60
2023-04-22T19:28:11.490Z,14.50
2023-04-22T19:30:47.620Z,10.73
2023-04-22T19:33:24.618Z,9.03
2023-04-22T19:36:01.200Z,9.75
2023-04-22T19:38:42.912Z,8.40
2023-04-22T19:41:17.975Z,6.90
2023-04-22T19:44:01.066Z,7.25
2023-04-22T19:46:41.033Z,7.28
2023-04-22T19:49:20.133Z,9.30
2023-04-22T19:51:57.984Z,11.20
2023-04-22T19:54:29.559Z,10.13
2023-04-22T19:57:09.131Z,10.90
2023-04-22T19:59:52.962Z,10.25
2023-04-22T20:02:33.953Z,10.88
2023-04-22T20:05:16.365Z,12.38
2023-04-22T20:07:59.899Z,12.23
2023-04-22T20:10:42.768Z,10.05
2023-04-22T20:13:23.201Z,11.95
2023-04-22T20:16:10.066Z,11.68
2023-04-22T20:18:48.984Z,13.88
2023-04-22T20:21:27.806Z,12.75
2023-04-22T20:24:12.480Z,16.08
2023-04-22T20:26:51.907Z,16.27
2023-04-22T20:29:30.647Z,13.27
2023-04-22T20:32:16.217Z,14.98
2023-04-22T20:34:55.326Z,13.27
2023-04-22T20:37:36.604Z,14.98
2023-04-22T20:40:19.603Z,14.15
2023-04-22T20:43:01.859Z,14.20
2023-04-22T20:45:39.559Z,14.90
2023-04-22T20:48:21.825Z,13.30
2023-04-22T20:50:58.010Z,14.65
2023-04-22T20:53:36.701Z,13.05
2023-04-22T20:56:16.618Z,13.25
2023-04-22T20:58:56.682Z,11.63
2023-04-22T21:01:35.199Z,11.05
2023-04-22T21:04:17.552Z,13.60
2023-04-22T21:06:53.934Z,14.70
2023-04-22T21:09:31.539Z,14.55
2023-04-22T21:12:09.079Z,12.82
2023-04-22T21:14:47.766Z,13.20
2023-04-22T21:17:24.405Z,14.25
2023-04-22T21:20:07.946Z,13.13
2023-04-22T21:22:45.448Z,14.55
2023-04-22T21:25:27.651Z,13.75
2023-04-22T21:28:09.356Z,14.43
2023-04-22T21:30:47.820Z,16.40
2023-04-22T21:33:21.300Z,14.73
2023-04-22T21:36:00.284Z,17.23
2023-04-22T21:38:38.806Z,15.23
2023-04-22T21:41:13.980Z,15.87
2023-04-22T21:43:50.474Z,15.77
2023-04-22T21:46:29.001Z,15.57
2023-04-22T21:49:06.680Z,15.48
2023-04-22T21:51:44.831Z,16.20
2023-04-22T21:54:20.949Z,17.35
2023-04-22T21:56:58.998Z,16.00
2023-04-22T21:59:34.642Z,17.90
2023-04-22T22:02:12.517Z,18.30
2023-04-22T22:04:56.198Z,19.42
2023-04-22T22:07:38.871Z,17.98
2023-04-22T22:10:15.040Z,20.30
2023-04-22T22:12:51.531Z,19.63
2023-04-22T22:15:28.346Z,19.20
2023-04-22T22:18:12.271Z,21.42
2023-04-22T22:20:49.309Z,21.23
2023-04-22T22:23:29.833Z,19.25
2023-04-22T22:26:08.631Z,20.60
2023-04-22T22:28:44.175Z,20.58
2023-04-22T22:31:20.662Z,22.55
2023-04-22T22:33:57.770Z,23.38
2023-04-22T22:36:36.619Z,23.25
2023-04-22T22:39:16.711Z,22.73
2023-04-22T22:41:52.567Z,24.30
2023-04-22T22:44:27.946Z,22.40
2023-04-22T22:47:06.522Z,21.73
2023-04-22T22:49:45.274Z,23.40
2023-04-22T22:52:21.937Z,21.55
2023-04-22T22:55:04.254Z,22.02
2023-04-22T22:57:41.285Z,20.38
2023-04-22T23:00:18.977Z,21.57
2023-04-22T23:02:57.364Z,20.15
2023-04-22T23:05:35.210Z,20.20
2023-04-22T23:08:11.315Z,20.63
2023-04-22T23:10:50.757Z,19.60
2023-04-22T23:13:26.346Z,20.33
2023-04-22T23:16:08.102Z,20.90
2023-04-22T23:18:44.730Z,21.25
2023-04-22T23:21:21.276Z,22.20
2023-04-22T23:24:02.065Z,24.15
2023-04-22T23:26:46.301Z,24.00
2023-04-22T23:29:21.841Z,23.50
2023-04-22T23:31:58.069Z,23.88
2023-04-22T23:34:37.149Z,23.70
2023-04-22T23:37:13.953Z,21.77
2023-04-22T23:39:52.472Z,22.60
2023-04-22T23:42:33.253Z,22.35
2023-04-22T23:45:13.649Z,21.90
2023-04-22T23:50:23.148Z,21.60
2023-04-22T23:52:59.297Z,21.77
2023-04-22T23:58:14.801Z,18.40
